createdAt,value
2022-09-13T00:00:41.624Z,5.70
2022-09-13T00:03:09.907Z,4.80
2022-09-13T00:05:37.671Z,6.53
2022-09-13T00:08:05.310Z,4.93
2022-09-13T00:10:34.586Z,4.77
2022-09-13T00:13:01.741Z,5.80
2022-09-13T00:15:28.516Z,4.03
2022-09-13T00:17:55.322Z,5.97
2022-09-13T00:20:21.901Z,4.80
2022-09-13T00:22:48.286Z,4.27
2022-09-13T00:25:15.106Z,4.13
2022-09-13T00:27:41.489Z,4.93
2022-09-13T00:30:08.719Z,5.23
2022-09-13T00:32:35.647Z,4.70
2022-09-13T00:35:03.637Z,5.37
2022-09-13T00:37:33.195Z,5.83
2022-09-13T00:40:01.184Z,4.40
2022-09-13T00:42:35.442Z,4.77
2022-09-13T00:45:14.201Z,4.77
2022-09-13T00:47:44.376Z,5.60
2022-09-13T00:50:13.474Z,5.73
2022-09-13T00:52:46.121Z,7.10
2022-09-13T00:55:28.043Z,4.13
2022-09-13T00:57:59.554Z,4.47
2022-09-13T01:00:26.354Z,4.73
2022-09-13T01:02:58.397Z,4.63
2022-09-13T01:05:30.479Z,5.10
2022-09-13T01:07:57.831Z,5.67
2022-09-13T01:10:24.470Z,6.17
2022-09-13T01:12:59.585Z,4.07
2022-09-13T01:15:26.123Z,5.77
2022-09-13T01:17:54.156Z,4.93
2022-09-13T01:20:25.639Z,4.90
2022-09-13T01:23:16.370Z,4.73
2022-09-13T01:26:15.311Z,5.10
2022-09-13T01:29:18.145Z,4.37
2022-09-13T01:32:20.031Z,4.53
2022-09-13T01:34:55.439Z,5.07
2022-09-13T01:37:40.784Z,5.13
2022-09-13T01:40:13.234Z,5.67
2022-09-13T01:43:13.617Z,4.60
2022-09-13T01:46:06.211Z,4.43
2022-09-13T01:49:03.176Z,4.03
2022-09-13T01:51:54.285Z,4.10
2022-09-13T01:54:23.689Z,6.37
2022-09-13T01:57:09.223Z,4.20
2022-09-13T01:59:47.651Z,4.83
2022-09-13T02:02:36.981Z,5.03
2022-09-13T02:05:11.729Z,5.70
2022-09-13T02:07:42.193Z,4.33
2022-09-13T02:10:15.952Z,5.13
2022-09-13T02:12:43.972Z,5.37
2022-09-13T02:15:16.124Z,4.00
2022-09-13T02:17:52.209Z,4.20
2022-09-13T02:20:25.078Z,4.87
2022-09-13T02:22:56.457Z,4.20
2022-09-13T02:25:26.509Z,5.53
2022-09-13T02:27:58.834Z,5.40
2022-09-13T02:30:27.119Z,5.00
2022-09-13T02:33:01.639Z,5.17
2022-09-13T02:35:38.564Z,4.40
2022-09-13T02:38:08.340Z,4.23
2022-09-13T02:40:49.479Z,5.43
2022-09-13T02:43:27.656Z,4.80
2022-09-13T02:46:16.842Z,4.00
2022-09-13T02:49:13.156Z,4.03
2022-09-13T02:52:01.074Z,4.90
2022-09-13T02:54:48.416Z,6.10
2022-09-13T02:57:22.306Z,5.57
2022-09-13T02:59:49.476Z,4.20
2022-09-13T03:02:19.690Z,5.43
2022-09-13T03:04:46.200Z,4.80
2022-09-13T03:07:14.596Z,4.77
2022-09-13T03:09:46.842Z,6.97
2022-09-13T03:12:44.264Z,4.40
2022-09-13T03:15:26.976Z,4.97
2022-09-13T03:18:12.251Z,4.17
2022-09-13T03:21:11.777Z,4.63
2022-09-13T03:23:47.229Z,5.47
2022-09-13T03:26:32.501Z,5.47
2022-09-13T03:29:24.256Z,4.77
2022-09-13T03:32:19.026Z,5.57
2022-09-13T03:35:13.697Z,8.50
2022-09-13T03:37:53.444Z,4.77
2022-09-13T03:40:35.357Z,5.70
2022-09-13T03:43:13.635Z,4.10
2022-09-13T03:45:48.449Z,5.93
2022-09-13T03:48:16.281Z,4.83
2022-09-13T03:50:45.412Z,5.00
2022-09-13T03:53:15.983Z,5.13
2022-09-13T03:55:43.485Z,7.10
2022-09-13T03:58:14.464Z,5.13
2022-09-13T04:00:41.394Z,5.07
2022-09-13T04:03:08.858Z,5.70
2022-09-13T04:05:35.795Z,4.80
2022-09-13T04:08:05.709Z,6.60
2022-09-13T04:10:33.432Z,5.43
2022-09-13T04:13:00.436Z,5.80
2022-09-13T04:15:33.486Z,5.07
2022-09-13T04:18:00.976Z,5.70
2022-09-13T04:20:27.520Z,6.83
2022-09-13T04:22:56.121Z,5.87
2022-09-13T04:25:23.416Z,5.37
2022-09-13T04:27:58.127Z,7.40
2022-09-13T04:30:24.826Z,4.67
2022-09-13T04:32:51.293Z,4.67
2022-09-13T04:35:19.700Z,6.47
2022-09-13T04:37:46.258Z,5.20
2022-09-13T04:40:14.466Z,5.63
2022-09-13T04:42:40.929Z,5.90
2022-09-13T04:45:08.194Z,5.83
2022-09-13T04:47:34.591Z,5.23
2022-09-13T04:50:00.961Z,4.77
2022-09-13T04:52:27.731Z,5.00
2022-09-13T04:54:54.600Z,4.53
2022-09-13T04:57:21.015Z,6.80
2022-09-13T04:59:47.419Z,5.87
2022-09-13T05:02:13.850Z,10.17
2022-09-13T05:04:40.351Z,5.83
2022-09-13T05:07:06.715Z,8.60
2022-09-13T05:09:33.169Z,5.17
2022-09-13T05:12:00.037Z,5.03
2022-09-13T05:14:26.517Z,5.47
2022-09-13T05:16:52.887Z,5.17
2022-09-13T05:19:19.270Z,6.80
2022-09-13T05:21:45.860Z,7.07
2022-09-13T05:24:12.340Z,6.00
2022-09-13T05:26:38.915Z,6.80
2022-09-13T05:29:05.492Z,4.50
2022-09-13T05:31:34.540Z,8.67
2022-09-13T05:34:03.929Z,5.07
2022-09-13T05:36:30.567Z,7.23
2022-09-13T05:39:26.030Z,4.53
2022-09-13T05:41:44.969Z,5.53
2022-09-13T05:44:13.641Z,7.23
2022-09-13T05:46:41.684Z,4.83
2022-09-13T05:49:08.340Z,5.10
2022-09-13T05:51:34.737Z,8.87
2022-09-13T05:54:01.194Z,6.47
2022-09-13T05:56:29.966Z,5.50
2022-09-13T05:58:56.602Z,5.00
2022-09-13T06:01:25.717Z,6.53
2022-09-13T06:03:55.591Z,5.73
2022-09-13T06:06:23.043Z,4.73
2022-09-13T06:08:55.533Z,5.50
2022-09-13T06:11:22.624Z,5.33
2022-09-13T06:13:49.045Z,7.73
2022-09-13T06:16:16.999Z,5.17
2022-09-13T06:18:43.905Z,5.10
2022-09-13T06:21:17.897Z,5.70
2022-09-13T06:23:46.279Z,7.80
2022-09-13T06:26:15.064Z,5.30
2022-09-13T06:28:41.794Z,6.93
2022-09-13T06:31:09.660Z,4.90
2022-09-13T06:33:38.209Z,5.23
2022-09-13T06:36:14.626Z,5.47
2022-09-13T06:38:42.081Z,5.17
2022-09-13T06:41:13.563Z,4.77
2022-09-13T06:43:40.965Z,5.60
2022-09-13T06:46:09.766Z,6.43
2022-09-13T06:48:38.635Z,8.73
2022-09-13T06:51:08.153Z,6.87
2022-09-13T06:53:36.174Z,5.20
2022-09-13T06:56:06.781Z,5.83
2022-09-13T06:58:34.694Z,6.33
2022-09-13T07:01:15.170Z,5.80
2022-09-13T07:03:44.147Z,6.87
2022-09-13T07:06:21.524Z,6.33
2022-09-13T07:08:50.270Z,9.63
2022-09-13T07:11:18.438Z,7.27
2022-09-13T07:13:49.559Z,7.00
2022-09-13T07:16:16.935Z,6.07
2022-09-13T07:18:43.458Z,6.93
2022-09-13T07:21:11.388Z,7.43
2022-09-13T07:23:40.602Z,9.17
2022-09-13T07:26:07.510Z,6.00
2022-09-13T07:28:43.222Z,6.20
2022-09-13T07:31:13.160Z,8.53
2022-09-13T07:33:41.579Z,6.67
2022-09-13T07:36:09.083Z,8.07
2022-09-13T07:38:37.067Z,6.22
2022-09-13T07:41:06.546Z,5.07
2022-09-13T07:43:34.408Z,5.63
2022-09-13T07:46:13.379Z,4.63
2022-09-13T07:48:42.138Z,4.85
2022-09-13T07:51:12.413Z,5.85
2022-09-13T07:53:41.023Z,4.75
2022-09-13T07:56:13.529Z,4.47
2022-09-13T07:58:42.191Z,5.63
2022-09-13T08:01:20.467Z,5.32
2022-09-13T08:03:56.355Z,4.63
2022-09-13T08:06:24.236Z,4.38
2022-09-13T08:08:51.516Z,5.25
2022-09-13T08:11:29.552Z,5.40
2022-09-13T08:13:55.961Z,4.50
2022-09-13T08:16:24.047Z,4.10
2022-09-13T08:18:53.257Z,4.25
2022-09-13T08:21:20.795Z,4.50
2022-09-13T08:23:47.729Z,5.38
2022-09-13T08:26:14.803Z,4.28
2022-09-13T08:28:42.907Z,4.30
2022-09-13T08:31:11.858Z,4.55
2022-09-13T08:33:40.209Z,4.13
2022-09-13T08:36:09.523Z,4.85
2022-09-13T08:38:35.943Z,5.50
2022-09-13T08:41:06.068Z,4.10
2022-09-13T08:43:39.601Z,5.30
2022-09-13T08:46:22.071Z,4.45
2022-09-13T08:48:52.354Z,4.10
2022-09-13T08:51:47.704Z,5.35
2022-09-13T08:54:16.824Z,3.83
2022-09-13T08:56:53.482Z,4.38
2022-09-13T08:59:32.085Z,7.40
2022-09-13T09:02:36.813Z,5.07
2022-09-13T09:05:17.209Z,4.30
2022-09-13T09:08:14.824Z,4.15
2022-09-13T09:10:45.760Z,4.38
2022-09-13T09:13:24.420Z,5.60
2022-09-13T09:15:55.055Z,4.25
2022-09-13T09:18:29.111Z,3.80
2022-09-13T09:20:58.169Z,3.50
2022-09-13T09:23:36.431Z,5.10
2022-09-13T09:26:19.229Z,3.78
2022-09-13T09:28:54.658Z,4.10
2022-09-13T09:31:34.545Z,4.28
2022-09-13T09:34:12.485Z,4.00
2022-09-13T09:36:50.169Z,5.90
2022-09-13T09:39:16.608Z,3.80
2022-09-13T09:41:44.454Z,4.28
2022-09-13T09:44:22.672Z,2.67
2022-09-13T09:47:00.066Z,3.88
2022-09-13T09:49:58.093Z,3.00
2022-09-13T09:52:37.123Z,3.33
2022-09-13T09:55:20.995Z,3.15
2022-09-13T09:57:52.906Z,4.20
2022-09-13T10:00:21.545Z,4.15
2022-09-13T10:02:51.864Z,3.38
2022-09-13T10:05:20.863Z,2.60
2022-09-13T10:07:57.508Z,2.95
2022-09-13T10:10:29.620Z,4.25
2022-09-13T10:12:57.401Z,3.75
2022-09-13T10:15:33.454Z,2.80
2022-09-13T10:21:21.870Z,4.40
2022-09-13T10:23:50.523Z,3.90
2022-09-13T10:26:25.682Z,2.97
2022-09-13T10:28:52.110Z,3.65
2022-09-13T10:31:20.787Z,3.53
2022-09-13T10:33:49.969Z,2.83
2022-09-13T10:36:35.268Z,2.90
2022-09-13T10:39:21.157Z,2.50
2022-09-13T10:41:55.919Z,2.63
2022-09-13T10:48:46.687Z,2.88
2022-09-13T10:51:28.031Z,2.47
2022-09-13T10:54:10.273Z,2.90
2022-09-13T10:56:37.144Z,2.13
2022-09-13T10:59:19.201Z,2.47
2022-09-13T11:02:13.648Z,2.90
2022-09-13T11:05:08.673Z,2.72
2022-09-13T11:07:47.159Z,2.80
2022-09-13T11:10:18.347Z,3.05
2022-09-13T11:13:07.646Z,3.30
2022-09-13T11:15:53.444Z,2.67
2022-09-13T11:18:32.137Z,2.78
2022-09-13T11:21:20.618Z,3.90
2022-09-13T11:24:09.497Z,2.53
2022-09-13T11:26:53.887Z,2.38
2022-09-13T11:29:56.993Z,2.10
2022-09-13T11:32:44.615Z,2.33
2022-09-13T11:35:45.922Z,2.22
2022-09-13T11:50:55.869Z,2.80
2022-09-13T11:53:35.036Z,1.92
2022-09-13T11:56:06.256Z,1.85
2022-09-13T11:58:50.262Z,1.85
2022-09-13T12:01:23.632Z,4.15
2022-09-13T12:04:00.893Z,2.65
2022-09-13T12:06:38.815Z,2.10
2022-09-13T12:09:15.008Z,2.50
2022-09-13T12:11:52.656Z,2.78
2022-09-13T12:14:24.618Z,2.03
2022-09-13T12:16:57.964Z,2.28
2022-09-13T12:19:36.441Z,1.95
2022-09-13T12:22:03.361Z,1.83
2022-09-13T12:24:50.572Z,2.28
2022-09-13T12:27:37.662Z,1.70
2022-09-13T12:30:14.855Z,1.92
2022-09-13T12:32:44.801Z,2.60
2022-09-13T12:35:19.892Z,2.38
2022-09-13T12:38:06.971Z,3.40
2022-09-13T12:40:52.169Z,2.42
2022-09-13T12:43:37.053Z,2.90
2022-09-13T12:46:12.739Z,2.63
2022-09-13T12:49:00.450Z,2.92
2022-09-13T12:51:48.778Z,2.50
2022-09-13T12:54:24.452Z,2.15
2022-09-13T12:57:02.876Z,2.20
2022-09-13T13:00:02.577Z,1.92
2022-09-13T13:02:38.049Z,2.25
2022-09-13T13:05:26.823Z,2.40
2022-09-13T13:07:57.871Z,1.90
2022-09-13T13:10:30.483Z,1.70
2022-09-13T13:13:10.242Z,2.05
2022-09-13T13:15:36.655Z,1.20
2022-09-13T13:18:27.294Z,1.90
2022-09-13T13:20:53.642Z,2.35
2022-09-13T13:23:26.959Z,2.05
2022-09-13T13:26:07.579Z,1.30
2022-09-13T13:28:42.923Z,1.30
2022-09-13T13:31:11.078Z,1.33
2022-09-13T13:33:49.461Z,1.20
2022-09-13T13:36:32.254Z,1.20
2022-09-13T13:39:01.340Z,2.08
2022-09-13T13:41:34.257Z,1.00
2022-09-13T13:44:02.446Z,1.20
2022-09-13T13:46:33.084Z,2.38
2022-09-13T13:49:31.749Z,2.35
2022-09-13T13:52:13.564Z,1.42
2022-09-13T13:54:44.050Z,0.95
2022-09-13T13:57:30.955Z,1.00
2022-09-13T14:00:16.703Z,1.10
2022-09-13T14:02:53.406Z,1.80
2022-09-13T14:05:44.929Z,2.05
2022-09-13T14:08:32.353Z,1.25
2022-09-13T14:11:33.201Z,1.08
2022-09-13T14:14:30.417Z,1.10
2022-09-13T14:17:40.372Z,0.80
2022-09-13T14:20:13.217Z,1.90
2022-09-13T14:22:39.624Z,1.20
2022-09-13T14:25:24.640Z,1.42
2022-09-13T14:27:56.721Z,1.00
2022-09-13T14:30:36.289Z,1.02
2022-09-13T14:33:05.214Z,1.67
2022-09-13T14:35:41.172Z,1.40
2022-09-13T14:38:20.965Z,0.77
2022-09-13T14:40:53.068Z,1.20
2022-09-13T14:43:26.304Z,1.85
2022-09-13T14:46:13.172Z,1.08
2022-09-13T14:48:46.260Z,0.70
2022-09-13T14:51:22.170Z,1.00
2022-09-13T14:53:53.156Z,1.30
2022-09-13T14:56:41.480Z,1.35
2022-09-13T14:59:23.046Z,3.42
2022-09-13T15:01:49.731Z,1.60
2022-09-13T15:04:18.494Z,2.92
2022-09-13T15:06:45.246Z,1.45
2022-09-13T15:09:11.607Z,3.13
2022-09-13T15:11:53.577Z,3.00
2022-09-13T15:14:31.146Z,1.30
2022-09-13T15:17:06.688Z,2.95
2022-09-13T15:19:43.165Z,1.70
2022-09-13T15:22:19.054Z,1.55
2022-09-13T15:24:51.789Z,2.00
2022-09-13T15:27:22.392Z,1.60
2022-09-13T15:29:54.555Z,1.35
2022-09-13T15:32:23.724Z,2.40
2022-09-13T15:34:51.002Z,1.50
2022-09-13T15:37:28.102Z,2.83
2022-09-13T15:40:18.808Z,2.55
2022-09-13T15:42:47.394Z,1.80
2022-09-13T15:45:14.185Z,2.08
2022-09-13T15:47:40.681Z,2.45
2022-09-13T15:50:07.469Z,1.73
2022-09-13T15:52:33.894Z,3.08
2022-09-13T15:55:00.789Z,1.60
2022-09-13T15:57:29.460Z,1.40
2022-09-13T15:59:56.747Z,3.17
2022-09-13T16:02:29.148Z,1.85
2022-09-13T16:04:56.207Z,1.35
2022-09-13T16:07:24.345Z,3.00
2022-09-13T16:09:51.253Z,2.10
2022-09-13T16:12:19.024Z,3.72
2022-09-13T16:14:46.388Z,1.70
2022-09-13T16:17:25.095Z,3.65
2022-09-13T16:19:51.989Z,2.70
2022-09-13T16:22:18.681Z,1.98
2022-09-13T16:24:45.716Z,1.70
2022-09-13T16:27:14.388Z,5.30
2022-09-13T16:29:44.560Z,2.67
2022-09-13T16:32:11.366Z,2.25
2022-09-13T16:34:38.334Z,3.45
2022-09-13T16:37:05.187Z,3.78
2022-09-13T16:39:31.660Z,5.97
2022-09-13T16:41:58.082Z,5.68
2022-09-13T16:44:24.564Z,4.93
2022-09-13T16:46:51.099Z,4.80
2022-09-13T16:49:17.718Z,5.15
2022-09-13T16:51:44.213Z,7.93
2022-09-13T16:54:10.559Z,6.15
2022-09-13T16:56:37.649Z,7.78
2022-09-13T16:59:04.074Z,8.07
2022-09-13T17:01:30.530Z,5.93
2022-09-13T17:03:57.497Z,7.68
2022-09-13T17:06:26.310Z,7.88
2022-09-13T17:09:01.860Z,7.93
2022-09-13T17:11:31.914Z,7.30
2022-09-13T17:13:59.681Z,7.80
2022-09-13T17:16:29.672Z,7.22
2022-09-13T17:18:58.337Z,7.50
2022-09-13T17:21:26.222Z,6.30
2022-09-13T17:23:53.282Z,11.55
2022-09-13T17:26:19.890Z,10.52
2022-09-13T17:28:46.516Z,8.38
2022-09-13T17:31:13.826Z,9.75
2022-09-13T17:33:40.486Z,10.70
2022-09-13T17:36:10.384Z,12.57
2022-09-13T17:38:37.624Z,10.20
2022-09-13T17:41:09.963Z,10.43
2022-09-13T17:43:44.725Z,8.45
2022-09-13T17:46:16.321Z,6.38
2022-09-13T17:48:43.493Z,7.70
2022-09-13T17:51:13.316Z,5.20
2022-09-13T17:53:42.095Z,7.95
2022-09-13T17:56:09.222Z,5.53
2022-09-13T17:58:36.220Z,4.93
2022-09-13T18:01:09.781Z,5.38
2022-09-13T18:03:38.177Z,5.07
2022-09-13T18:06:07.921Z,8.20
2022-09-13T18:08:36.117Z,4.75
2022-09-13T18:11:22.588Z,6.82
2022-09-13T18:13:49.381Z,4.97
2022-09-13T18:16:21.418Z,6.90
2022-09-13T18:18:50.197Z,7.68
2022-09-13T18:21:20.821Z,7.97
2022-09-13T18:23:49.183Z,6.25
2022-09-13T18:26:18.918Z,5.95
2022-09-13T18:28:46.021Z,9.70
2022-09-13T18:31:17.679Z,7.65
2022-09-13T18:33:45.287Z,6.47
2022-09-13T18:36:14.207Z,9.55
2022-09-13T18:38:46.221Z,9.77
2022-09-13T18:41:14.057Z,7.85
2022-09-13T18:43:42.281Z,8.05
2022-09-13T18:46:11.794Z,9.65
2022-09-13T18:48:41.098Z,8.43
2022-09-13T18:51:13.146Z,10.18
2022-09-13T18:53:40.139Z,8.20
2022-09-13T18:56:09.330Z,10.45
2022-09-13T18:58:37.602Z,9.80
2022-09-13T19:01:06.832Z,6.57
2022-09-13T19:03:34.321Z,8.20
2022-09-13T19:06:19.900Z,10.40
2022-09-13T19:08:47.687Z,8.57
2022-09-13T19:11:35.317Z,8.48
2022-09-13T19:14:01.121Z,10.05
2022-09-13T19:16:27.783Z,8.23
2022-09-13T19:18:54.302Z,6.85
2022-09-13T19:21:23.075Z,9.38
2022-09-13T19:23:59.465Z,9.55
2022-09-13T19:26:32.468Z,9.52
2022-09-13T19:29:08.514Z,7.60
2022-09-13T19:31:37.955Z,10.23
2022-09-13T19:34:06.243Z,8.85
2022-09-13T19:36:35.305Z,10.75
2022-09-13T19:39:03.539Z,10.45
2022-09-13T19:41:30.386Z,11.45
2022-09-13T19:44:00.101Z,7.70
2022-09-13T19:46:31.443Z,13.70
2022-09-13T19:48:59.428Z,10.52
2022-09-13T19:51:34.428Z,9.60
2022-09-13T19:54:01.078Z,8.27
2022-09-13T19:56:30.238Z,7.75
2022-09-13T19:58:57.643Z,5.95
2022-09-13T20:01:26.861Z,8.73
2022-09-13T20:03:58.660Z,8.40
2022-09-13T20:06:27.435Z,7.55
2022-09-13T20:08:59.052Z,11.13
2022-09-13T20:11:27.823Z,12.85
2022-09-13T20:13:55.652Z,8.60
2022-09-13T20:16:24.763Z,9.88
2022-09-13T20:18:52.119Z,11.40
2022-09-13T20:21:19.358Z,9.75
2022-09-13T20:23:46.674Z,12.55
2022-09-13T20:26:15.989Z,10.10
2022-09-13T20:28:42.920Z,10.60
2022-09-13T20:31:09.972Z,11.45
2022-09-13T20:33:36.744Z,9.38
2022-09-13T20:36:07.802Z,13.98
2022-09-13T20:38:34.431Z,10.27
2022-09-13T20:41:12.192Z,9.02
2022-09-13T20:43:39.995Z,10.85
2022-09-13T20:46:08.293Z,8.05
2022-09-13T20:48:35.566Z,9.68
2022-09-13T20:51:05.256Z,9.75
2022-09-13T20:53:33.052Z,9.02
2022-09-13T20:56:04.499Z,9.63
2022-09-13T20:58:31.333Z,6.53
2022-09-13T21:01:03.673Z,7.93
2022-09-13T21:03:30.580Z,9.63
2022-09-13T21:05:56.958Z,9.07
2022-09-13T21:08:41.716Z,9.02
2022-09-13T21:11:33.862Z,7.13
2022-09-13T21:14:06.266Z,9.68
2022-09-13T21:16:39.048Z,7.28
2022-09-13T21:19:06.121Z,8.50
2022-09-13T21:21:36.010Z,9.70
2022-09-13T21:24:04.638Z,7.82
2022-09-13T21:26:32.294Z,9.80
2022-09-13T21:28:59.036Z,7.32
2022-09-13T21:31:28.148Z,7.43
2022-09-13T21:33:59.834Z,8.73
2022-09-13T21:36:28.204Z,6.93
2022-09-13T21:38:55.895Z,8.25
2022-09-13T21:41:23.939Z,8.35
2022-09-13T21:43:50.418Z,6.88
2022-09-13T21:46:22.060Z,7.85
2022-09-13T21:48:55.471Z,9.80
2022-09-13T21:51:23.530Z,8.00
2022-09-13T21:53:58.481Z,7.28
2022-09-13T21:56:30.303Z,8.43
2022-09-13T21:58:59.128Z,7.60
2022-09-13T22:01:33.973Z,8.75
2022-09-13T22:04:01.369Z,6.65
2022-09-13T22:06:33.536Z,7.57
2022-09-13T22:09:03.788Z,10.75
2022-09-13T22:11:34.436Z,7.97
2022-09-13T22:14:02.212Z,7.90
2022-09-13T22:16:31.867Z,5.95
2022-09-13T22:19:08.522Z,8.60
2022-09-13T22:21:39.062Z,11.02
2022-09-13T22:24:07.807Z,9.63
2022-09-13T22:26:37.705Z,6.07
2022-09-13T22:29:05.140Z,7.75
2022-09-13T22:31:35.188Z,8.48
2022-09-13T22:34:02.303Z,8.15
2022-09-13T22:36:29.545Z,8.85
2022-09-13T22:38:56.361Z,9.30
2022-09-13T22:41:26.308Z,9.65
2022-09-13T22:43:53.488Z,7.55
2022-09-13T22:46:26.002Z,8.52
2022-09-13T22:49:26.754Z,8.20
2022-09-13T22:51:53.406Z,8.85
2022-09-13T22:54:19.986Z,11.00
2022-09-13T22:56:46.893Z,11.98
2022-09-13T22:59:18.754Z,14.45
2022-09-13T23:01:45.878Z,14.18
2022-09-13T23:04:13.274Z,16.88
2022-09-13T23:06:40.690Z,10.63
2022-09-13T23:09:08.437Z,14.00
2022-09-13T23:11:37.269Z,12.55
2022-09-13T23:14:12.438Z,12.55
2022-09-13T23:16:42.340Z,9.95
2022-09-13T23:19:10.049Z,8.70
2022-09-13T23:21:37.582Z,9.98
2022-09-13T23:24:06.570Z,8.20
2022-09-13T23:26:34.097Z,6.28
2022-09-13T23:29:01.835Z,8.55
2022-09-13T23:31:31.235Z,11.13
2022-09-13T23:38:57.851Z,12.32
2022-09-13T23:41:25.813Z,9.00
2022-09-13T23:43:53.494Z,9.85
2022-09-13T23:46:20.476Z,6.80
2022-09-13T23:48:46.932Z,10.73
2022-09-13T23:51:16.938Z,9.07
2022-09-13T23:53:43.772Z,6.30
2022-09-13T23:56:11.620Z,6.97
